Time;durP1;ratioP1;P1;durP2;ratioP2;P2;SDS_P1;SDS_P2;PMS_P1;PMS_P2;Temp;Humidity;BMP_temperature;BMP_pressure;BME280_temperature;BME280_humidity;BME280_pressure;Samples;Min_cycle;Max_cycle;Signal;HPM_P1;HPM_P2
2022/01/31 00:00:12;;;;;;;15.90;3.33;;;7.20;52.10;;;;;;6263079;22;20428;-60
2022/01/31 00:02:38;;;;;;;18.15;3.33;;;7.30;52.00;;;;;;6262668;22;20306;-60
2022/01/31 00:05:05;;;;;;;16.80;3.80;;;7.30;52.10;;;;;;6264723;22;20003;-60
2022/01/31 00:07:31;;;;;;;22.67;3.20;;;7.30;52.10;;;;;;6265460;22;20010;-60
2022/01/31 00:09:57;;;;;;;20.42;3.30;;;7.30;52.10;;;;;;6265535;22;20003;-60
2022/01/31 00:12:28;;;;;;;12.43;3.00;;;7.30;52.10;;;;;;6264369;22;20507;-60
2022/01/31 00:15:00;;;;;;;15.27;3.13;;;7.30;52.10;;;;;;6262852;22;20000;-59
2022/01/31 00:17:27;;;;;;;16.23;3.42;;;7.30;52.10;;;;;;6265105;22;20003;-58
2022/01/31 00:19:53;;;;;;;25.92;3.40;;;7.30;52.00;;;;;;6264731;22;20014;-60
2022/01/31 00:22:19;;;;;;;12.80;3.10;;;7.30;52.00;;;;;;6263428;22;20325;-60
2022/01/31 00:24:45;;;;;;;20.23;3.47;;;7.30;52.00;;;;;;6262616;22;20022;-60
2022/01/31 00:27:11;;;;;;;15.48;3.00;;;7.30;52.00;;;;;;6264455;22;20003;-60
2022/01/31 00:29:38;;;;;;;19.75;2.95;;;7.30;52.00;;;;;;6263188;22;19996;-60
2022/01/31 00:32:04;;;;;;;14.07;3.30;;;7.30;52.10;;;;;;6264064;22;20008;-60
2022/01/31 00:34:31;;;;;;;21.83;3.22;;;7.30;52.00;;;;;;6263149;22;20353;-60
2022/01/31 00:36:58;;;;;;;18.33;3.33;;;7.30;52.00;;;;;;6265292;22;20000;-60
2022/01/31 00:39:24;;;;;;;12.57;2.67;;;7.30;52.00;;;;;;6264531;22;20007;-60
2022/01/31 00:41:50;;;;;;;13.80;3.30;;;7.20;52.00;;;;;;6264120;22;19996;-58
2022/01/31 00:44:31;;;;;;;11.48;2.85;;;7.20;52.10;;;;;;6262807;22;20007;-59
2022/01/31 00:47:02;;;;;;;20.75;3.25;;;7.20;52.10;;;;;;6264216;22;19996;-59
2022/01/31 00:51:58;;;;;;;13.63;2.63;;;7.20;52.20;;;;;;6263284;22;20027;-60
2022/01/31 00:54:24;;;;;;;15.77;2.97;;;7.10;52.30;;;;;;6262735;22;20000;-60
2022/01/31 00:56:51;;;;;;;19.83;3.42;;;7.10;52.40;;;;;;6264268;22;20004;-60
2022/01/31 00:59:18;;;;;;;18.20;3.10;;;7.10;52.40;;;;;;6263509;22;19995;-59
2022/01/31 01:01:45;;;;;;;15.93;2.78;;;7.10;52.40;;;;;;6264084;22;20447;-60
2022/01/31 01:04:12;;;;;;;20.58;3.20;;;7.10;52.50;;;;;;6236722;22;20415;-58
2022/01/31 01:06:38;;;;;;;9.40;3.22;;;7.10;52.60;;;;;;6265446;22;19996;-58
2022/01/31 01:09:04;;;;;;;14.05;3.20;;;7.10;52.70;;;;;;6266840;22;20000;-60
2022/01/31 01:11:31;;;;;;;17.73;3.17;;;7.10;52.70;;;;;;6266832;22;20341;-60
2022/01/31 01:13:57;;;;;;;17.75;3.75;;;7.10;52.70;;;;;;6235420;22;20003;-59
2022/01/31 01:16:23;;;;;;;28.20;4.07;;;7.10;52.80;;;;;;6265407;22;20451;-60
2022/01/31 01:18:50;;;;;;;13.80;3.33;;;7.20;53.00;;;;;;6266939;22;20331;-59
2022/01/31 01:21:16;;;;;;;12.48;3.70;;;7.10;53.00;;;;;;6265132;22;20003;-58
2022/01/31 01:23:42;;;;;;;18.90;3.45;;;7.20;53.10;;;;;;6264196;22;20333;-60
2022/01/31 01:26:08;;;;;;;17.98;3.70;;;7.20;53.20;;;;;;6238220;22;20006;-60
2022/01/31 01:28:34;;;;;;;15.93;3.10;;;7.20;53.30;;;;;;6265634;22;19999;-60
2022/01/31 01:31:01;;;;;;;19.60;3.35;;;7.20;53.30;;;;;;6266350;22;20003;-58
2022/01/31 01:33:28;;;;;;;14.10;3.42;;;7.20;53.30;;;;;;6264461;22;19992;-60
2022/01/31 01:35:55;;;;;;;13.68;3.30;;;7.20;53.30;;;;;;6238462;22;20004;-60
2022/01/31 01:38:27;;;;;;;12.57;2.72;;;7.20;53.30;;;;;;6237498;22;20015;-60
2022/01/31 01:40:56;;;;;;;17.27;3.50;;;7.20;53.20;;;;;;6276901;22;20003;-60
2022/01/31 01:43:22;;;;;;;16.67;3.42;;;7.30;53.30;;;;;;6261933;22;19999;-60
2022/01/31 01:45:52;;;;;;;17.95;3.88;;;7.30;53.30;;;;;;6266440;22;20000;-60
2022/01/31 01:48:18;;;;;;;12.27;2.95;;;7.30;53.30;;;;;;6266694;22;20004;-60
2022/01/31 01:50:45;;;;;;;19.15;3.60;;;7.30;53.30;;;;;;6262740;22;20415;-58
2022/01/31 01:53:15;;;;;;;21.73;3.00;;;7.30;53.30;;;;;;6275597;22;20007;-60
2022/01/31 01:55:45;;;;;;;17.40;3.55;;;7.30;53.30;;;;;;6265601;22;20324;-60
2022/01/31 01:58:16;;;;;;;13.25;2.65;;;7.30;53.30;;;;;;6264252;22;20412;-63
2022/01/31 02:01:05;;;;;;;20.00;3.28;;;7.30;53.30;;;;;;6265683;22;20008;-60
2022/01/31 02:03:32;;;;;;;19.65;3.63;;;7.40;53.30;;;;;;6263984;22;20007;-60
2022/01/31 02:05:59;;;;;;;22.15;3.35;;;7.40;53.30;;;;;;6265208;22;20010;-60
2022/01/31 02:08:27;;;;;;;22.05;3.67;;;7.40;53.30;;;;;;6266219;22;20000;-60
2022/01/31 02:10:54;;;;;;;13.30;2.92;;;7.40;53.30;;;;;;6265415;22;20004;-60
2022/01/31 02:13:21;;;;;;;22.08;3.75;;;7.40;53.20;;;;;;6262507;22;19999;-60
2022/01/31 02:15:50;;;;;;;19.55;3.83;;;7.40;53.30;;;;;;6264617;22;20007;-60
2022/01/31 02:18:19;;;;;;;19.65;3.17;;;7.50;53.30;;;;;;6265551;22;20003;-60
2022/01/31 02:20:45;;;;;;;16.98;3.38;;;7.50;53.30;;;;;;6264733;22;20011;-60
2022/01/31 02:23:13;;;;;;;22.00;3.72;;;7.50;53.30;;;;;;6263256;22;20003;-60
2022/01/31 02:25:58;;;;;;;17.45;3.45;;;7.50;53.30;;;;;;6265053;22;20004;-60
2022/01/31 02:28:27;;;;;;;15.23;3.03;;;7.50;53.30;;;;;;6264303;22;20010;-60
2022/01/31 02:30:55;;;;;;;18.23;3.20;;;7.50;53.40;;;;;;6237493;22;20004;-60
2022/01/31 02:33:22;;;;;;;15.48;2.75;;;7.50;53.40;;;;;;6263504;22;20011;-60
2022/01/31 02:35:52;;;;;;;16.85;3.53;;;7.60;53.40;;;;;;6265539;22;20007;-60
2022/01/31 02:38:19;;;;;;;17.13;3.53;;;7.60;53.40;;;;;;6260885;22;20314;-60
2022/01/31 02:40:45;;;;;;;18.67;2.92;;;7.60;53.50;;;;;;6265788;22;20007;-60
2022/01/31 02:43:18;;;;;;;19.42;3.90;;;7.60;53.40;;;;;;6263331;22;20299;-60
2022/01/31 02:45:44;;;;;;;20.88;3.00;;;7.60;53.30;;;;;;6264161;22;20003;-58
2022/01/31 02:48:12;;;;;;;16.15;3.53;;;7.70;53.40;;;;;;6264453;22;20000;-60
2022/01/31 02:50:40;;;;;;;18.40;3.58;;;7.70;53.40;;;;;;6265147;22;19999;-60
2022/01/31 02:53:14;;;;;;;14.80;3.20;;;7.70;53.40;;;;;;6275541;22;20444;-60
2022/01/31 02:55:43;;;;;;;23.08;3.10;;;7.70;53.50;;;;;;6265905;22;20004;-60
2022/01/31 02:58:10;;;;;;;17.48;3.47;;;7.70;53.50;;;;;;6262990;22;20042;-60
2022/01/31 03:00:37;;;;;;;18.00;2.92;;;7.70;53.60;;;;;;6237023;22;20003;-60
2022/01/31 03:03:03;;;;;;;19.35;2.88;;;7.80;53.60;;;;;;6235299;22;20008;-60
2022/01/31 03:05:30;;;;;;;18.30;3.08;;;7.80;53.60;;;;;;6237964;22;20004;-60
2022/01/31 03:07:56;;;;;;;15.02;2.88;;;7.80;53.70;;;;;;6266434;22;19999;-60
2022/01/31 03:10:22;;;;;;;18.10;2.30;;;7.80;53.60;;;;;;6238294;22;20010;-60
2022/01/31 03:12:49;;;;;;;19.83;3.53;;;7.80;53.50;;;;;;6262539;22;20015;-60
2022/01/31 03:15:15;;;;;;;14.43;2.60;;;7.80;53.60;;;;;;6263638;22;19996;-60
2022/01/31 03:17:46;;;;;;;18.20;3.45;;;7.80;53.70;;;;;;6263005;22;20439;-60
2022/01/31 03:20:14;;;;;;;11.40;3.30;;;7.80;53.90;;;;;;6273096;22;19995;-61
2022/01/31 03:22:40;;;;;;;15.25;2.88;;;7.90;54.00;;;;;;6261929;22;20002;-61
2022/01/31 03:25:06;;;;;;;14.88;2.65;;;7.80;54.20;;;;;;6266112;22;19999;-61
2022/01/31 03:27:33;;;;;;;18.13;3.53;;;7.80;54.30;;;;;;6264198;22;20471;-61
2022/01/31 03:29:59;;;;;;;16.70;3.63;;;7.80;54.50;;;;;;6263995;22;20007;-60
2022/01/31 03:32:25;;;;;;;15.70;3.08;;;7.90;54.80;;;;;;6263778;22;19999;-60
2022/01/31 03:34:51;;;;;;;17.92;3.08;;;7.80;55.10;;;;;;6262600;22;20003;-60
2022/01/31 03:37:18;;;;;;;22.33;3.33;;;7.80;55.20;;;;;;6265498;22;20329;-60
2022/01/31 03:39:44;;;;;;;20.23;3.10;;;7.80;55.30;;;;;;6262584;22;20336;-60
2022/01/31 03:42:15;;;;;;;14.85;3.30;;;7.80;55.60;;;;;;6265988;22;20007;-58
2022/01/31 03:44:45;;;;;;;13.38;3.00;;;7.80;55.70;;;;;;6262584;22;20026;-60
2022/01/31 03:47:12;;;;;;;11.73;2.67;;;7.80;55.80;;;;;;6264258;22;20415;-60
2022/01/31 03:49:38;;;;;;;20.85;3.47;;;7.70;55.90;;;;;;6237346;22;20003;-60
2022/01/31 03:52:04;;;;;;;18.52;2.80;;;7.70;56.20;;;;;;6266097;22;20022;-60
2022/01/31 03:54:30;;;;;;;18.80;3.08;;;7.70;56.20;;;;;;6236964;22;20011;-59
2022/01/31 03:56:56;;;;;;;10.27;2.75;;;7.70;56.50;;;;;;6264390;22;20000;-59
2022/01/31 03:59:23;;;;;;;13.20;2.67;;;7.60;56.50;;;;;;6263745;22;20037;-59
2022/01/31 04:01:49;;;;;;;13.75;3.10;;;7.60;56.60;;;;;;6265279;22;19995;-59
2022/01/31 04:04:15;;;;;;;9.25;2.55;;;7.60;56.80;;;;;;6264365;22;20006;-60
2022/01/31 04:06:42;;;;;;;14.60;2.22;;;7.60;56.90;;;;;;6265492;22;20011;-59
2022/01/31 04:09:08;;;;;;;16.73;2.88;;;7.60;56.90;;;;;;6265147;22;20010;-59
2022/01/31 04:11:34;;;;;;;11.98;2.10;;;7.60;57.00;;;;;;6265677;22;20008;-60
2022/01/31 04:14:00;;;;;;;11.23;2.20;;;7.70;57.20;;;;;;6262699;22;20294;-60
2022/01/31 04:16:27;;;;;;;9.80;2.28;;;7.60;57.40;;;;;;6265192;22;20456;-60
2022/01/31 04:18:53;;;;;;;12.80;2.33;;;7.70;57.60;;;;;;6264767;22;20003;-58
2022/01/31 04:21:21;;;;;;;9.85;2.45;;;7.60;57.70;;;;;;6265325;22;20420;-60
2022/01/31 04:23:50;;;;;;;11.75;2.03;;;7.70;57.80;;;;;;6262324;22;20007;-59
2022/01/31 04:26:17;;;;;;;14.52;2.92;;;7.70;58.10;;;;;;6265108;22;20011;-57
2022/01/31 04:28:46;;;;;;;8.10;1.92;;;7.60;58.20;;;;;;6261335;22;20003;-57
2022/01/31 04:31:36;;;;;;;6.53;1.70;;;7.60;58.50;;;;;;6263534;22;20006;-60
2022/01/31 04:34:01;;;;;;;7.60;1.95;;;7.70;58.60;;;;;;6258686;22;20452;-58
2022/01/31 04:36:27;;;;;;;6.32;1.42;;;7.70;58.70;;;;;;6261875;22;20725;-60
2022/01/31 04:38:53;;;;;;;5.55;1.25;;;7.70;58.80;;;;;;6264556;22;20355;-59
2022/01/31 04:41:20;;;;;;;8.18;1.33;;;7.70;58.90;;;;;;6264784;22;20003;-60
2022/01/31 04:43:48;;;;;;;6.82;1.13;;;7.70;59.00;;;;;;6263933;22;20004;-59
2022/01/31 04:46:16;;;;;;;5.03;1.10;;;7.70;59.20;;;;;;6265214;22;20018;-60
2022/01/31 04:48:45;;;;;;;5.72;1.08;;;7.70;59.30;;;;;;6265490;22;20425;-59
2022/01/31 04:51:13;;;;;;;6.15;1.05;;;7.70;59.40;;;;;;6266729;22;20015;-58
2022/01/31 04:53:39;;;;;;;3.47;0.70;;;7.70;59.70;;;;;;6275513;22;20007;-60
2022/01/31 04:56:05;;;;;;;2.55;0.98;;;7.70;59.70;;;;;;6266714;22;20003;-59
2022/01/31 04:58:32;;;;;;;2.50;0.68;;;7.70;59.90;;;;;;6265540;22;20448;-58
2022/01/31 05:00:59;;;;;;;4.15;0.90;;;7.60;59.90;;;;;;6265003;22;20004;-59
2022/01/31 05:03:26;;;;;;;0.88;0.30;;;7.70;60.90;;;;;;6266871;22;19995;-60
2022/01/31 05:05:52;;;;;;;1.63;0.70;;;7.70;60.10;;;;;;6266003;22;20000;-58
2022/01/31 05:08:24;;;;;;;2.17;0.45;;;7.70;60.40;;;;;;6266124;22;20000;-57
2022/01/31 05:10:51;;;;;;;1.30;0.60;;;7.70;60.80;;;;;;6265064;22;20425;-56
2022/01/31 05:13:17;;;;;;;1.40;0.50;;;7.70;60.70;;;;;;6263812;22;20007;-59
2022/01/31 05:15:45;;;;;;;3.33;0.70;;;7.70;60.80;;;;;;6263737;22;20011;-61
2022/01/31 05:18:12;;;;;;;3.90;0.50;;;7.70;61.10;;;;;;6263690;22;19996;-60
2022/01/31 05:20:38;;;;;;;0.52;0.35;;;7.70;61.20;;;;;;6266742;22;20444;-59
2022/01/31 05:23:06;;;;;;;2.63;0.95;;;7.70;61.30;;;;;;6265160;22;20008;-59
2022/01/31 05:25:33;;;;;;;3.03;0.80;;;7.60;61.60;;;;;;6237074;22;20000;-59
2022/01/31 05:27:59;;;;;;;3.47;0.75;;;7.70;61.90;;;;;;6264552;22;20015;-59
2022/01/31 05:30:25;;;;;;;2.45;0.80;;;7.60;62.10;;;;;;6265673;22;19999;-59
2022/01/31 05:32:53;;;;;;;1.85;0.90;;;7.60;62.20;;;;;;6265963;22;20012;-57
2022/01/31 05:35:19;;;;;;;3.92;0.93;;;7.70;62.50;;;;;;6262511;22;20447;-59
2022/01/31 05:37:46;;;;;;;2.45;1.13;;;7.70;62.70;;;;;;6259930;22;20250;-60
2022/01/31 05:40:13;;;;;;;3.58;1.30;;;7.70;62.70;;;;;;6263317;22;20431;-60
2022/01/31 05:42:39;;;;;;;3.63;1.60;;;7.70;62.80;;;;;;6260529;22;20004;-58
2022/01/31 05:45:06;;;;;;;6.35;1.40;;;7.70;62.90;;;;;;6263597;22;20063;-60
2022/01/31 05:47:34;;;;;;;4.13;1.40;;;7.70;63.00;;;;;;6237510;22;20340;-60
2022/01/31 05:50:01;;;;;;;9.35;1.98;;;7.80;63.20;;;;;;6237293;22;20003;-60
2022/01/31 05:52:27;;;;;;;15.18;2.05;;;7.80;63.40;;;;;;6236857;22;20015;-60
2022/01/31 05:54:53;;;;;;;9.60;2.13;;;7.80;63.40;;;;;;6238646;22;20007;-60
2022/01/31 05:57:20;;;;;;;7.95;1.73;;;7.80;63.40;;;;;;6264828;22;20019;-57
2022/01/31 05:59:46;;;;;;;6.80;2.03;;;7.90;63.40;;;;;;6265185;22;20004;-58
2022/01/31 06:02:12;;;;;;;8.98;2.35;;;7.90;63.40;;;;;;6266205;22;20011;-56
2022/01/31 06:04:38;;;;;;;10.38;2.38;;;7.90;63.50;;;;;;6265087;22;20026;-53
2022/01/31 06:07:04;;;;;;;8.60;2.58;;;8.00;63.60;;;;;;6266111;22;20006;-60
2022/01/31 06:09:32;;;;;;;12.60;2.65;;;8.00;64.30;;;;;;6266901;22;20000;-59
2022/01/31 06:12:01;;;;;;;7.60;2.13;;;8.00;63.60;;;;;;6262930;22;20007;-60
2022/01/31 06:14:28;;;;;;;10.40;2.22;;;8.00;63.70;;;;;;6263478;22;20004;-59
2022/01/31 06:16:54;;;;;;;14.20;2.83;;;8.10;63.70;;;;;;6238076;22;20307;-57
2022/01/31 06:19:20;;;;;;;15.77;3.38;;;8.10;63.80;;;;;;6265414;22;19996;-54
2022/01/31 06:21:46;;;;;;;15.23;3.40;;;8.10;63.80;;;;;;6265252;22;20010;-56
2022/01/31 06:24:15;;;;;;;9.93;2.85;;;8.10;63.70;;;;;;6264599;22;20151;-55
2022/01/31 06:26:42;;;;;;;11.48;2.53;;;8.20;63.70;;;;;;6266146;22;20333;-56
2022/01/31 06:29:08;;;;;;;14.55;2.53;;;8.20;63.50;;;;;;6262458;22;20000;-55
2022/01/31 06:31:35;;;;;;;18.00;3.13;;;8.30;63.50;;;;;;6207741;22;20015;-58
2022/01/31 06:34:02;;;;;;;12.13;2.47;;;8.30;63.30;;;;;;6236882;22;20007;-58
2022/01/31 06:36:28;;;;;;;10.98;3.20;;;8.30;63.00;;;;;;6264720;22;20420;-59
2022/01/31 06:38:54;;;;;;;18.98;3.25;;;8.30;63.00;;;;;;6263577;22;19999;-57
2022/01/31 06:41:23;;;;;;;13.30;2.42;;;8.40;62.80;;;;;;6261238;22;20006;-55
2022/01/31 06:43:49;;;;;;;24.17;3.53;;;8.40;62.40;;;;;;6256285;22;20010;-59
2022/01/31 06:46:16;;;;;;;15.82;2.85;;;8.40;62.10;;;;;;6262442;22;20003;-58
2022/01/31 06:48:42;;;;;;;20.20;2.63;;;8.50;61.90;;;;;;6264267;22;20007;-55
2022/01/31 06:51:09;;;;;;;12.55;2.30;;;8.50;61.50;;;;;;6264676;22;20370;-58
2022/01/31 06:53:35;;;;;;;14.50;2.28;;;8.50;61.30;;;;;;6262651;22;20000;-59
2022/01/31 06:56:02;;;;;;;11.25;2.35;;;8.60;60.90;;;;;;6264529;22;20317;-57
2022/01/31 06:58:28;;;;;;;15.65;2.88;;;8.60;60.70;;;;;;6262143;22;19996;-58
2022/01/31 07:00:56;;;;;;;16.08;2.90;;;8.60;60.40;;;;;;6264694;22;20006;-56
2022/01/31 07:03:22;;;;;;;11.57;2.28;;;8.60;60.10;;;;;;6264015;22;20023;-56
2022/01/31 07:05:48;;;;;;;13.52;2.50;;;8.70;60.10;;;;;;6263384;22;20307;-57
2022/01/31 07:08:15;;;;;;;14.38;2.67;;;8.70;59.90;;;;;;6263362;22;20011;-58
2022/01/31 07:10:50;;;;;;;11.65;2.55;;;8.70;59.80;;;;;;6265277;22;20321;-59
2022/01/31 07:13:37;;;;;;;;;;;;;;;;;;;;;
2022/01/31 07:15:51;;;;;;;18.92;2.83;;;8.70;59.60;;;;;;6263613;22;20008;-55
2022/01/31 07:18:17;;;;;;;11.68;2.40;;;8.70;59.40;;;;;;6261424;22;20417;-59
2022/01/31 07:20:50;;;;;;;18.38;2.40;;;8.70;59.40;;;;;;6255729;22;20012;-53
2022/01/31 07:23:23;;;;;;;10.13;2.40;;;8.70;59.40;;;;;;6258427;22;20004;-56
2022/01/31 07:25:49;;;;;;;20.90;2.53;;;8.70;59.30;;;;;;6273402;22;20003;-56
2022/01/31 07:28:16;;;;;;;12.15;2.55;;;8.70;59.20;;;;;;6233091;22;20007;-58
2022/01/31 07:30:47;;;;;;;18.13;2.83;;;8.80;59.20;;;;;;6259492;22;20443;-59
2022/01/31 07:33:14;;;;;;;16.52;3.50;;;8.80;59.00;;;;;;6264124;22;20000;-60
2022/01/31 07:35:49;;;;;;;11.73;2.75;;;8.80;59.00;;;;;;6256357;22;19999;-58
2022/01/31 07:38:16;;;;;;;16.23;2.45;;;8.80;59.00;;;;;;6267124;22;20006;-56
2022/01/31 07:40:43;;;;;;;10.73;2.22;;;8.80;58.90;;;;;;6264691;22;20007;-56
2022/01/31 07:43:10;;;;;;;11.52;2.60;;;8.80;59.00;;;;;;6262500;22;20544;-58
2022/01/31 07:45:36;;;;;;;13.80;2.80;;;8.80;59.20;;;;;;6263181;22;20003;-50
2022/01/31 07:48:03;;;;;;;9.77;2.20;;;8.70;59.10;;;;;;6263966;22;20007;-58
2022/01/31 07:50:31;;;;;;;13.55;2.40;;;8.70;59.30;;;;;;6236872;22;20000;-58
2022/01/31 07:52:57;;;;;;;16.58;2.47;;;8.70;59.40;;;;;;6253879;22;20020;-58
2022/01/31 07:55:24;;;;;;;12.70;2.60;;;8.60;59.60;;;;;;6252978;22;20004;-60
2022/01/31 07:57:50;;;;;;;15.27;2.47;;;8.60;59.70;;;;;;6230272;22;20504;-58
2022/01/31 08:00:17;;;;;;;12.15;2.40;;;8.50;59.80;;;;;;6259987;22;20008;-59
2022/01/31 08:02:43;;;;;;;15.15;2.53;;;8.50;59.90;;;;;;6254102;22;20004;-57
2022/01/31 08:05:10;;;;;;;15.10;2.40;;;8.50;60.10;;;;;;6248782;22;20004;-57
2022/01/31 08:07:37;;;;;;;17.08;2.50;;;8.40;60.30;;;;;;6248693;22;20022;-58
2022/01/31 08:10:05;;;;;;;12.85;2.25;;;8.40;60.80;;;;;;6255255;22;20302;-58
2022/01/31 08:12:33;;;;;;;17.05;4.20;;;8.30;61.00;;;;;;6253993;22;20170;-58
2022/01/31 08:15:02;;;;;;;10.38;2.10;;;8.30;61.40;;;;;;6226031;22;20010;-57
2022/01/31 08:17:29;;;;;;;13.95;2.85;;;8.20;61.50;;;;;;6254613;22;20365;-56
2022/01/31 08:19:55;;;;;;;11.70;2.63;;;8.20;61.70;;;;;;6255870;22;20462;-59
2022/01/31 08:22:21;;;;;;;10.90;2.60;;;8.10;61.90;;;;;;6232550;22;20018;-58
2022/01/31 08:24:47;;;;;;;13.98;2.58;;;8.10;62.50;;;;;;6260917;22;20365;-59
2022/01/31 08:27:13;;;;;;;13.65;2.40;;;8.00;62.60;;;;;;6259096;22;20008;-59
2022/01/31 08:29:40;;;;;;;7.38;2.53;;;8.00;63.00;;;;;;6255332;22;20003;-56
2022/01/31 08:32:23;;;;;;;17.10;3.20;;;7.90;63.30;;;;;;6264551;22;20003;-58
2022/01/31 08:37:34;;;;;;;13.85;2.80;;;7.90;63.70;;;;;;6273563;22;20018;-56
2022/01/31 08:40:00;;;;;;;14.63;2.55;;;7.90;63.70;;;;;;6260410;22;20019;-56
2022/01/31 08:42:28;;;;;;;16.25;3.25;;;7.80;63.80;;;;;;6261906;22;20336;-57
2022/01/31 08:44:54;;;;;;;14.40;3.22;;;7.80;64.10;;;;;;6264939;22;20175;-56
2022/01/31 08:47:21;;;;;;;13.93;2.42;;;7.80;64.20;;;;;;6264915;22;20004;-58
2022/01/31 08:49:49;;;;;;;17.05;3.25;;;7.80;64.40;;;;;;6266915;22;20000;-57
2022/01/31 08:52:15;;;;;;;18.55;3.33;;;7.80;64.30;;;;;;6261366;22;20011;-57
2022/01/31 08:54:41;;;;;;;15.77;3.00;;;7.80;64.30;;;;;;6233201;22;20008;-58
2022/01/31 08:57:07;;;;;;;14.65;3.08;;;7.90;64.40;;;;;;6262196;22;20050;-54
2022/01/31 08:59:40;;;;;;;18.25;3.40;;;7.90;64.50;;;;;;6260417;22;20004;-57
2022/01/31 09:02:12;;;;;;;9.15;2.88;;;7.80;64.40;;;;;;6264579;22;20007;-58
2022/01/31 09:04:48;;;;;;;11.00;2.60;;;7.80;64.30;;;;;;6270649;22;20332;-57
2022/01/31 09:07:20;;;;;;;10.25;3.15;;;7.90;64.30;;;;;;6264887;22;20019;-58
2022/01/31 09:09:53;;;;;;;15.02;2.65;;;7.80;64.30;;;;;;6261393;22;20003;-59
2022/01/31 09:12:22;;;;;;;17.42;3.25;;;7.80;64.20;;;;;;6265019;22;20310;-58
2022/01/31 09:14:48;;;;;;;14.05;2.90;;;7.80;64.30;;;;;;6234275;22;20004;-59
2022/01/31 09:17:15;;;;;;;10.07;2.67;;;7.80;64.40;;;;;;6263504;22;20030;-57
2022/01/31 09:19:41;;;;;;;17.85;3.47;;;7.80;64.40;;;;;;6261177;22;20004;-56
2022/01/31 09:22:07;;;;;;;8.90;2.55;;;7.80;64.50;;;;;;6266299;22;20015;-56
2022/01/31 09:24:39;;;;;;;7.78;2.00;;;7.80;64.50;;;;;;6231896;22;20443;-56
2022/01/31 09:27:11;;;;;;;11.32;2.15;;;7.80;64.60;;;;;;6275941;22;19991;-57
2022/01/31 09:29:37;;;;;;;13.73;3.10;;;7.80;64.60;;;;;;6234865;22;20440;-58
2022/01/31 09:32:04;;;;;;;15.73;3.22;;;7.80;64.40;;;;;;6260419;22;20011;-56
2022/01/31 09:34:31;;;;;;;14.65;2.80;;;7.80;64.30;;;;;;6230639;22;20034;-55
2022/01/31 09:36:59;;;;;;;8.90;2.40;;;7.80;64.50;;;;;;6260628;22;20010;-57
2022/01/31 09:39:26;;;;;;;7.72;2.17;;;7.80;64.40;;;;;;6262776;22;20000;-57
2022/01/31 09:41:56;;;;;;;11.73;2.72;;;7.80;64.60;;;;;;6265700;22;20006;-58
2022/01/31 09:44:39;;;;;;;12.23;2.50;;;7.80;64.90;;;;;;6261098;22;20010;-56
2022/01/31 09:47:18;;;;;;;11.20;2.42;;;7.80;64.90;;;;;;6233112;22;20177;-59
2022/01/31 09:49:45;;;;;;;8.63;2.05;;;7.80;64.70;;;;;;6263988;22;20015;-58
2022/01/31 09:52:11;;;;;;;13.25;2.92;;;7.80;64.70;;;;;;6264944;22;20020;-57
2022/01/31 09:54:37;;;;;;;17.10;2.55;;;7.80;64.50;;;;;;6261920;22;20381;-58
2022/01/31 09:57:04;;;;;;;12.68;2.70;;;7.90;64.50;;;;;;6263094;22;20003;-56
2022/01/31 09:59:30;;;;;;;9.57;2.67;;;7.80;64.20;;;;;;6264161;22;20427;-58
2022/01/31 10:01:58;;;;;;;9.13;2.05;;;7.90;64.20;;;;;;6261632;22;20333;-56
2022/01/31 10:04:29;;;;;;;10.52;2.42;;;7.90;64.30;;;;;;6231897;22;20023;-54
2022/01/31 10:06:57;;;;;;;12.05;2.30;;;7.90;64.30;;;;;;6239113;22;20605;-58
2022/01/31 10:09:26;;;;;;;9.05;1.80;;;7.90;64.00;;;;;;6233090;22;20000;-56
2022/01/31 10:12:19;;;;;;;14.40;2.83;;;7.80;63.90;;;;;;6256385;22;20380;-57
2022/01/31 10:17:40;;;;;;;11.02;2.22;;;7.80;63.80;;;;;;6272293;22;20348;-52
2022/01/31 10:20:09;;;;;;;9.98;2.45;;;7.80;64.00;;;;;;6263453;22;20006;-58
2022/01/31 10:22:42;;;;;;;9.90;2.25;;;7.80;64.10;;;;;;6231258;22;20015;-58
2022/01/31 10:25:12;;;;;;;9.23;2.30;;;7.80;64.30;;;;;;6261585;22;20298;-55
2022/01/31 10:27:39;;;;;;;14.32;2.60;;;7.70;64.30;;;;;;6236996;22;20223;-56
2022/01/31 10:30:14;;;;;;;11.18;2.45;;;7.70;64.30;;;;;;6263045;22;19991;-56
2022/01/31 10:32:45;;;;;;;13.88;2.85;;;7.70;64.30;;;;;;6244747;22;20003;-57
2022/01/31 10:35:20;;;;;;;10.27;2.13;;;7.70;64.50;;;;;;6264944;22;19996;-59
2022/01/31 10:37:48;;;;;;;17.05;2.70;;;7.70;64.40;;;;;;6264899;22;20007;-58
2022/01/31 10:46:04;;;;;;;14.80;2.70;;;7.60;64.40;;;;;;6270470;22;20014;-56
2022/01/31 10:56:56;;;;;;;13.15;2.15;;;7.70;64.50;;;;;;6266738;22;20018;-58
2022/01/31 10:59:33;;;;;;;;;;;7.60;64.60;;;;;;6267083;22;20008;-58
2022/01/31 11:02:02;;;;;;;14.32;2.95;;;7.70;64.60;;;;;;6251465;22;19903;-57
2022/01/31 11:04:33;;;;;;;9.50;2.70;;;7.60;64.40;;;;;;6253345;22;20325;-56
2022/01/31 11:07:06;;;;;;;15.98;2.40;;;7.60;64.60;;;;;;6261430;22;20000;-56
2022/01/31 11:09:33;;;;;;;16.55;3.08;;;7.60;64.70;;;;;;6227521;22;20000;-58
2022/01/31 11:12:00;;;;;;;10.73;2.20;;;7.50;64.90;;;;;;6256769;22;20000;-59
2022/01/31 11:14:27;;;;;;;15.55;3.35;;;7.50;65.00;;;;;;6227362;22;20011;-58
2022/01/31 11:16:56;;;;;;;14.43;2.67;;;7.50;65.30;;;;;;6254639;22;20012;-56
2022/01/31 11:19:33;;;;;;;17.75;3.05;;;7.50;65.40;;;;;;6259437;22;20006;-58
2022/01/31 11:22:06;;;;;;;19.85;3.25;;;7.50;65.70;;;;;;6259475;22;20008;-60
2022/01/31 11:24:46;;;;;;;18.23;3.28;;;7.50;66.10;;;;;;6273972;22;20000;-57
2022/01/31 11:27:17;;;;;;;11.43;2.75;;;7.50;66.50;;;;;;6257073;22;19996;-55
2022/01/31 11:29:49;;;;;;;19.48;3.25;;;7.40;66.40;;;;;;6256294;22;20492;-57
2022/01/31 11:32:16;;;;;;;10.93;2.28;;;7.40;66.80;;;;;;6256892;22;20003;-55
2022/01/31 11:34:45;;;;;;;17.13;2.75;;;7.40;67.10;;;;;;6208833;22;20008;-53
2022/01/31 11:37:18;;;;;;;12.82;2.00;;;7.30;67.20;;;;;;6265454;22;20019;-55
2022/01/31 11:39:51;;;;;;;19.23;2.70;;;7.30;68.20;;;;;;6236375;22;20012;-57
2022/01/31 11:42:20;;;;;;;17.10;2.70;;;7.30;67.90;;;;;;6275205;22;20234;-59
2022/01/31 11:45:04;;;;;;;18.08;2.80;;;7.30;68.00;;;;;;6263366;22;19992;-58
2022/01/31 11:47:32;;;;;;;21.10;2.58;;;7.30;68.20;;;;;;6236529;22;20011;-59
2022/01/31 11:50:00;;;;;;;19.50;2.97;;;7.30;68.10;;;;;;6263408;22;19995;-57
2022/01/31 11:52:41;;;;;;;20.98;3.20;;;7.20;68.30;;;;;;6264154;22;20436;-58
2022/01/31 11:55:12;;;;;;;16.70;2.72;;;7.20;68.50;;;;;;6246957;22;20000;-55
2022/01/31 11:57:39;;;;;;;17.85;3.50;;;7.20;68.60;;;;;;6274182;22;19996;-58
2022/01/31 12:00:08;;;;;;;15.82;2.63;;;7.20;68.70;;;;;;6256404;22;20279;-58
2022/01/31 12:02:46;;;;;;;19.25;3.13;;;7.20;68.90;;;;;;6252924;22;20000;-57
2022/01/31 12:05:16;;;;;;;14.77;2.70;;;7.20;69.30;;;;;;6271518;22;20721;-59
2022/01/31 12:07:47;;;;;;;23.52;3.97;;;7.20;69.40;;;;;;6250126;22;20002;-56
2022/01/31 12:10:31;;;;;;;18.60;3.03;;;7.20;69.50;;;;;;6262396;22;20004;-58
2022/01/31 12:13:12;;;;;;;;;;;7.20;69.50;;;;;;6274295;22;20451;-57
2022/01/31 12:18:47;;;;;;;23.70;3.65;;;7.20;69.00;;;;;;6258199;22;20026;-58
2022/01/31 12:24:33;;;;;;;21.73;3.53;;;7.20;69.50;;;;;;6271202;22;20015;-59
2022/01/31 12:27:13;;;;;;;22.02;3.60;;;7.10;69.60;;;;;;6225925;22;20011;-57
2022/01/31 12:29:46;;;;;;;24.98;4.05;;;7.20;69.90;;;;;;6261639;22;19992;-56
2022/01/31 12:32:24;;;;;;;31.05;4.28;;;7.10;69.90;;;;;;6264228;22;20321;-57
2022/01/31 12:34:59;;;;;;;29.25;3.88;;;7.10;70.00;;;;;;6271284;22;20034;-54
2022/01/31 12:37:39;;;;;;;26.95;3.70;;;7.20;70.10;;;;;;6273239;22;20011;-57
2022/01/31 12:40:29;;;;;;;35.47;4.30;;;7.20;70.00;;;;;;6266926;22;20000;-57
2022/01/31 12:45:43;;;;;;;19.27;3.72;;;7.20;69.90;;;;;;6273289;22;20003;-59
2022/01/31 12:48:09;;;;;;;22.67;4.32;;;7.20;69.90;;;;;;6264681;22;20000;-58
2022/01/31 12:50:51;;;;;;;27.20;5.07;;;7.10;69.70;;;;;;6257745;22;20007;-59
2022/01/31 12:53:24;;;;;;;32.33;4.78;;;7.10;70.00;;;;;;6196917;23;20016;-59
2022/01/31 12:56:35;;;;;;;25.15;3.95;;;7.10;69.90;;;;;;6196277;23;20000;-58
2022/01/31 12:59:05;;;;;;;28.20;3.90;;;7.10;70.20;;;;;;6196286;23;20004;-58
2022/01/31 13:01:38;;;;;;;22.80;4.20;;;7.10;70.00;;;;;;6199643;23;20004;-59
2022/01/31 13:04:10;;;;;;;29.65;4.32;;;7.10;70.10;;;;;;6206441;23;20005;-59
2022/01/31 13:06:39;;;;;;;22.55;3.63;;;7.10;70.20;;;;;;6200278;23;20363;-59
2022/01/31 13:09:13;;;;;;;28.92;4.13;;;7.10;70.30;;;;;;6198772;22;20016;-56
2022/01/31 13:11:44;;;;;;;22.90;3.42;;;7.10;70.20;;;;;;6197490;23;20000;-57
2022/01/31 13:14:34;;;;;;;23.92;4.25;;;7.10;70.40;;;;;;6194858;23;20016;-58
2022/01/31 13:17:15;;;;;;;25.77;3.63;;;7.10;70.80;;;;;;6214579;23;20004;-59
2022/01/31 13:19:47;;;;;;;22.70;3.33;;;7.20;70.50;;;;;;6214914;23;20008;-56
2022/01/31 13:22:33;;;;;;;23.58;3.10;;;7.20;70.40;;;;;;6202954;23;20202;-56
2022/01/31 13:25:05;;;;;;;23.45;3.80;;;7.20;70.30;;;;;;6205360;23;20000;-58
2022/01/31 13:27:34;;;;;;;27.45;3.80;;;7.20;70.20;;;;;;6204276;23;20007;-57
2022/01/31 13:30:03;;;;;;;20.33;3.75;;;7.10;70.20;;;;;;6204004;23;20338;-57